sensor_id;sensor_type;location;lat;lon;timestamp;P1;durP1;ratioP1;P2;durP2;ratioP2
9720;SDS011;4899;42.644;23.366;2023-05-07T00:01:15;6.83;;;6.13;;
9720;SDS011;4899;42.644;23.366;2023-05-07T00:03:41;9.50;;;5.97;;
9720;SDS011;4899;42.644;23.366;2023-05-07T00:06:06;10.03;;;5.87;;
9720;SDS011;4899;42.644;23.366;2023-05-07T00:08:32;7.70;;;5.70;;
9720;SDS011;4899;42.644;23.366;2023-05-07T00:10:57;6.23;;;5.47;;
9720;SDS011;4899;42.644;23.366;2023-05-07T00:13:23;8.10;;;6.20;;
9720;SDS011;4899;42.644;23.366;2023-05-07T00:15:48;5.87;;;5.37;;
9720;SDS011;4899;42.644;23.366;2023-05-07T00:18:13;6.10;;;5.50;;
9720;SDS011;4899;42.644;23.366;2023-05-07T00:20:39;5.97;;;5.40;;
9720;SDS011;4899;42.644;23.366;2023-05-07T00:23:04;6.60;;;5.83;;
9720;SDS011;4899;42.644;23.366;2023-05-07T00:25:30;7.20;;;5.77;;
9720;SDS011;4899;42.644;23.366;2023-05-07T00:27:55;7.77;;;6.90;;
9720;SDS011;4899;42.644;23.366;2023-05-07T00:30:22;9.37;;;8.37;;
9720;SDS011;4899;42.644;23.366;2023-05-07T00:32:48;7.60;;;7.00;;
9720;SDS011;4899;42.644;23.366;2023-05-07T00:35:14;8.97;;;7.10;;
9720;SDS011;4899;42.644;23.366;2023-05-07T00:37:39;8.63;;;6.53;;
9720;SDS011;4899;42.644;23.366;2023-05-07T00:40:05;7.97;;;6.77;;
9720;SDS011;4899;42.644;23.366;2023-05-07T00:42:32;8.40;;;7.50;;
9720;SDS011;4899;42.644;23.366;2023-05-07T00:44:58;9.60;;;8.70;;
9720;SDS011;4899;42.644;23.366;2023-05-07T00:47:23;10.30;;;8.07;;
9720;SDS011;4899;42.644;23.366;2023-05-07T00:49:50;10.33;;;7.93;;
9720;SDS011;4899;42.644;23.366;2023-05-07T00:52:17;9.13;;;8.23;;
9720;SDS011;4899;42.644;23.366;2023-05-07T00:54:42;10.43;;;9.30;;
9720;SDS011;4899;42.644;23.366;2023-05-07T00:57:11;10.57;;;9.07;;
9720;SDS011;4899;42.644;23.366;2023-05-07T00:59:36;11.87;;;9.90;;
9720;SDS011;4899;42.644;23.366;2023-05-07T01:02:02;11.53;;;9.70;;
9720;SDS011;4899;42.644;23.366;2023-05-07T01:04:28;8.67;;;7.87;;
9720;SDS011;4899;42.644;23.366;2023-05-07T01:06:54;6.83;;;6.23;;
9720;SDS011;4899;42.644;23.366;2023-05-07T01:09:21;6.30;;;5.53;;
9720;SDS011;4899;42.644;23.366;2023-05-07T01:11:49;6.40;;;4.93;;
9720;SDS011;4899;42.644;23.366;2023-05-07T01:14:15;7.50;;;5.50;;
9720;SDS011;4899;42.644;23.366;2023-05-07T01:16:41;5.73;;;5.13;;
9720;SDS011;4899;42.644;23.366;2023-05-07T01:19:07;5.60;;;5.03;;
9720;SDS011;4899;42.644;23.366;2023-05-07T01:21:33;6.20;;;5.17;;
9720;SDS011;4899;42.644;23.366;2023-05-07T01:24:02;5.50;;;5.00;;
9720;SDS011;4899;42.644;23.366;2023-05-07T01:26:28;7.03;;;4.90;;
9720;SDS011;4899;42.644;23.366;2023-05-07T01:28:54;5.20;;;4.80;;
9720;SDS011;4899;42.644;23.366;2023-05-07T01:31:19;5.37;;;4.90;;
9720;SDS011;4899;42.644;23.366;2023-05-07T01:33:45;6.30;;;5.47;;
9720;SDS011;4899;42.644;23.366;2023-05-07T01:36:13;8.60;;;5.33;;
9720;SDS011;4899;42.644;23.366;2023-05-07T01:38:40;5.40;;;5.00;;
9720;SDS011;4899;42.644;23.366;2023-05-07T01:41:06;6.57;;;5.47;;
9720;SDS011;4899;42.644;23.366;2023-05-07T01:43:32;7.50;;;6.63;;
9720;SDS011;4899;42.644;23.366;2023-05-07T01:45:58;8.40;;;7.70;;
9720;SDS011;4899;42.644;23.366;2023-05-07T01:48:25;9.73;;;8.83;;
9720;SDS011;4899;42.644;23.366;2023-05-07T01:50:51;9.67;;;8.67;;
9720;SDS011;4899;42.644;23.366;2023-05-07T01:53:16;10.37;;;9.27;;
9720;SDS011;4899;42.644;23.366;2023-05-07T01:55:42;9.83;;;8.63;;
9720;SDS011;4899;42.644;23.366;2023-05-07T01:58:07;10.90;;;9.47;;
9720;SDS011;4899;42.644;23.366;2023-05-07T02:00:33;10.20;;;9.27;;
9720;SDS011;4899;42.644;23.366;2023-05-07T02:02:59;9.00;;;8.30;;
9720;SDS011;4899;42.644;23.366;2023-05-07T02:05:24;9.33;;;8.17;;
9720;SDS011;4899;42.644;23.366;2023-05-07T02:07:50;9.47;;;8.37;;
9720;SDS011;4899;42.644;23.366;2023-05-07T02:10:15;9.33;;;8.50;;
9720;SDS011;4899;42.644;23.366;2023-05-07T02:12:40;9.53;;;8.73;;
9720;SDS011;4899;42.644;23.366;2023-05-07T02:15:07;10.03;;;9.13;;
9720;SDS011;4899;42.644;23.366;2023-05-07T02:17:33;9.87;;;8.87;;
9720;SDS011;4899;42.644;23.366;2023-05-07T02:19:59;10.83;;;9.77;;
9720;SDS011;4899;42.644;23.366;2023-05-07T02:22:24;10.60;;;9.50;;
9720;SDS011;4899;42.644;23.366;2023-05-07T02:24:50;8.77;;;7.87;;
9720;SDS011;4899;42.644;23.366;2023-05-07T02:27:16;10.43;;;9.33;;
9720;SDS011;4899;42.644;23.366;2023-05-07T02:29:41;9.30;;;8.40;;
9720;SDS011;4899;42.644;23.366;2023-05-07T02:32:07;11.00;;;9.70;;
9720;SDS011;4899;42.644;23.366;2023-05-07T02:34:32;9.30;;;8.40;;
9720;SDS011;4899;42.644;23.366;2023-05-07T02:36:58;10.20;;;9.20;;
9720;SDS011;4899;42.644;23.366;2023-05-07T02:39:23;9.83;;;8.93;;
9720;SDS011;4899;42.644;23.366;2023-05-07T02:41:49;10.30;;;9.30;;
9720;SDS011;4899;42.644;23.366;2023-05-07T02:44:14;10.37;;;9.37;;
9720;SDS011;4899;42.644;23.366;2023-05-07T02:46:39;9.87;;;9.07;;
9720;SDS011;4899;42.644;23.366;2023-05-07T02:49:05;10.03;;;9.03;;
9720;SDS011;4899;42.644;23.366;2023-05-07T02:51:31;11.63;;;9.70;;
9720;SDS011;4899;42.644;23.366;2023-05-07T02:53:56;10.50;;;9.50;;
9720;SDS011;4899;42.644;23.366;2023-05-07T02:56:22;10.90;;;9.70;;
9720;SDS011;4899;42.644;23.366;2023-05-07T02:58:47;11.77;;;10.57;;
9720;SDS011;4899;42.644;23.366;2023-05-07T03:01:13;11.87;;;10.43;;
9720;SDS011;4899;42.644;23.366;2023-05-07T03:03:39;11.87;;;10.77;;
9720;SDS011;4899;42.644;23.366;2023-05-07T03:06:05;12.73;;;11.53;;
9720;SDS011;4899;42.644;23.366;2023-05-07T03:08:31;12.90;;;11.70;;
9720;SDS011;4899;42.644;23.366;2023-05-07T03:10:57;13.77;;;12.40;;
9720;SDS011;4899;42.644;23.366;2023-05-07T03:13:42;14.20;;;12.87;;
9720;SDS011;4899;42.644;23.366;2023-05-07T03:16:07;14.03;;;12.60;;
9720;SDS011;4899;42.644;23.366;2023-05-07T03:18:32;14.37;;;12.90;;
9720;SDS011;4899;42.644;23.366;2023-05-07T03:20:58;14.67;;;12.77;;
9720;SDS011;4899;42.644;23.366;2023-05-07T03:23:23;14.37;;;12.97;;
9720;SDS011;4899;42.644;23.366;2023-05-07T03:25:48;15.00;;;13.40;;
9720;SDS011;4899;42.644;23.366;2023-05-07T03:28:14;14.90;;;13.50;;
9720;SDS011;4899;42.644;23.366;2023-05-07T03:30:39;15.87;;;13.73;;
9720;SDS011;4899;42.644;23.366;2023-05-07T03:33:05;14.60;;;13.20;;
9720;SDS011;4899;42.644;23.366;2023-05-07T03:35:30;16.37;;;14.67;;
9720;SDS011;4899;42.644;23.366;2023-05-07T03:37:56;16.07;;;14.37;;
9720;SDS011;4899;42.644;23.366;2023-05-07T03:40:21;16.17;;;14.47;;
9720;SDS011;4899;42.644;23.366;2023-05-07T03:42:46;14.57;;;12.13;;
9720;SDS011;4899;42.644;23.366;2023-05-07T03:45:12;12.20;;;11.10;;
9720;SDS011;4899;42.644;23.366;2023-05-07T03:47:37;12.00;;;10.90;;
9720;SDS011;4899;42.644;23.366;2023-05-07T03:50:03;11.40;;;10.33;;
9720;SDS011;4899;42.644;23.366;2023-05-07T03:52:29;10.30;;;9.30;;
9720;SDS011;4899;42.644;23.366;2023-05-07T03:54:54;12.63;;;9.97;;
9720;SDS011;4899;42.644;23.366;2023-05-07T03:57:20;9.60;;;8.57;;
9720;SDS011;4899;42.644;23.366;2023-05-07T03:59:45;10.77;;;9.80;;
9720;SDS011;4899;42.644;23.366;2023-05-07T04:02:11;14.97;;;9.43;;
9720;SDS011;4899;42.644;23.366;2023-05-07T04:04:36;10.07;;;9.13;;
9720;SDS011;4899;42.644;23.366;2023-05-07T04:07:01;10.77;;;9.67;;
9720;SDS011;4899;42.644;23.366;2023-05-07T04:09:28;11.00;;;9.83;;
9720;SDS011;4899;42.644;23.366;2023-05-07T04:11:53;10.70;;;9.70;;
9720;SDS011;4899;42.644;23.366;2023-05-07T04:14:18;11.47;;;9.97;;
9720;SDS011;4899;42.644;23.366;2023-05-07T04:16:44;11.33;;;10.23;;
9720;SDS011;4899;42.644;23.366;2023-05-07T04:19:09;11.57;;;10.33;;
9720;SDS011;4899;42.644;23.366;2023-05-07T04:21:35;11.20;;;10.10;;
9720;SDS011;4899;42.644;23.366;2023-05-07T04:24:00;11.30;;;10.13;;
9720;SDS011;4899;42.644;23.366;2023-05-07T04:26:28;11.73;;;10.53;;
9720;SDS011;4899;42.644;23.366;2023-05-07T04:28:54;11.87;;;10.13;;
9720;SDS011;4899;42.644;23.366;2023-05-07T04:31:20;11.10;;;10.00;;
9720;SDS011;4899;42.644;23.366;2023-05-07T04:33:46;12.33;;;11.20;;
9720;SDS011;4899;42.644;23.366;2023-05-07T04:36:11;12.37;;;11.07;;
9720;SDS011;4899;42.644;23.366;2023-05-07T04:38:36;13.03;;;10.90;;
9720;SDS011;4899;42.644;23.366;2023-05-07T04:41:03;12.53;;;11.27;;
9720;SDS011;4899;42.644;23.366;2023-05-07T04:43:30;11.60;;;10.53;;
9720;SDS011;4899;42.644;23.366;2023-05-07T04:45:56;13.10;;;10.97;;
9720;SDS011;4899;42.644;23.366;2023-05-07T04:48:21;12.33;;;11.13;;
9720;SDS011;4899;42.644;23.366;2023-05-07T04:50:47;11.63;;;10.37;;
9720;SDS011;4899;42.644;23.366;2023-05-07T04:53:13;12.50;;;11.20;;
9720;SDS011;4899;42.644;23.366;2023-05-07T04:55:38;12.17;;;10.87;;
9720;SDS011;4899;42.644;23.366;2023-05-07T04:58:04;12.47;;;11.33;;
9720;SDS011;4899;42.644;23.366;2023-05-07T05:00:30;13.10;;;10.57;;
9720;SDS011;4899;42.644;23.366;2023-05-07T05:02:55;11.50;;;10.33;;
9720;SDS011;4899;42.644;23.366;2023-05-07T05:05:21;11.90;;;10.63;;
9720;SDS011;4899;42.644;23.366;2023-05-07T05:07:46;13.10;;;10.47;;
9720;SDS011;4899;42.644;23.366;2023-05-07T05:10:11;14.80;;;10.30;;
9720;SDS011;4899;42.644;23.366;2023-05-07T05:12:37;12.20;;;10.80;;
9720;SDS011;4899;42.644;23.366;2023-05-07T05:15:03;11.27;;;10.37;;
9720;SDS011;4899;42.644;23.366;2023-05-07T05:17:29;12.93;;;10.83;;
9720;SDS011;4899;42.644;23.366;2023-05-07T05:19:54;13.07;;;11.87;;
9720;SDS011;4899;42.644;23.366;2023-05-07T05:22:20;12.23;;;10.97;;
9720;SDS011;4899;42.644;23.366;2023-05-07T05:24:45;11.90;;;10.80;;
9720;SDS011;4899;42.644;23.366;2023-05-07T05:27:11;13.00;;;11.63;;
9720;SDS011;4899;42.644;23.366;2023-05-07T05:29:36;12.63;;;11.37;;
9720;SDS011;4899;42.644;23.366;2023-05-07T05:32:01;13.90;;;12.40;;
9720;SDS011;4899;42.644;23.366;2023-05-07T05:34:27;12.90;;;11.60;;
9720;SDS011;4899;42.644;23.366;2023-05-07T05:36:52;12.77;;;11.50;;
9720;SDS011;4899;42.644;23.366;2023-05-07T05:39:18;12.67;;;11.40;;
9720;SDS011;4899;42.644;23.366;2023-05-07T05:41:43;12.70;;;11.23;;
9720;SDS011;4899;42.644;23.366;2023-05-07T05:44:09;12.70;;;11.43;;
9720;SDS011;4899;42.644;23.366;2023-05-07T05:46:34;18.63;;;16.30;;
9720;SDS011;4899;42.644;23.366;2023-05-07T05:49:00;15.03;;;13.53;;
9720;SDS011;4899;42.644;23.366;2023-05-07T05:51:25;14.70;;;12.43;;
9720;SDS011;4899;42.644;23.366;2023-05-07T05:53:51;14.70;;;13.30;;
9720;SDS011;4899;42.644;23.366;2023-05-07T05:56:16;14.70;;;12.67;;
9720;SDS011;4899;42.644;23.366;2023-05-07T05:58:42;15.63;;;13.80;;
9720;SDS011;4899;42.644;23.366;2023-05-07T06:01:07;15.83;;;12.57;;
9720;SDS011;4899;42.644;23.366;2023-05-07T06:03:33;15.10;;;12.80;;
9720;SDS011;4899;42.644;23.366;2023-05-07T06:05:58;13.60;;;11.70;;
9720;SDS011;4899;42.644;23.366;2023-05-07T06:08:25;14.43;;;13.03;;
9720;SDS011;4899;42.644;23.366;2023-05-07T06:10:54;13.10;;;11.90;;
9720;SDS011;4899;42.644;23.366;2023-05-07T06:13:20;14.13;;;12.63;;
9720;SDS011;4899;42.644;23.366;2023-05-07T06:15:45;14.07;;;12.73;;
9720;SDS011;4899;42.644;23.366;2023-05-07T06:18:11;14.43;;;13.03;;
9720;SDS011;4899;42.644;23.366;2023-05-07T06:20:36;13.30;;;11.97;;
9720;SDS011;4899;42.644;23.366;2023-05-07T06:23:01;14.07;;;12.77;;
9720;SDS011;4899;42.644;23.366;2023-05-07T06:25:27;13.10;;;11.80;;
9720;SDS011;4899;42.644;23.366;2023-05-07T06:27:52;14.53;;;12.80;;
9720;SDS011;4899;42.644;23.366;2023-05-07T06:30:18;13.67;;;11.50;;
9720;SDS011;4899;42.644;23.366;2023-05-07T06:32:43;13.07;;;11.43;;
9720;SDS011;4899;42.644;23.366;2023-05-07T06:35:09;11.73;;;10.60;;
9720;SDS011;4899;42.644;23.366;2023-05-07T06:37:34;12.30;;;11.10;;
9720;SDS011;4899;42.644;23.366;2023-05-07T06:40:00;12.33;;;11.27;;
9720;SDS011;4899;42.644;23.366;2023-05-07T06:42:25;12.47;;;11.20;;
9720;SDS011;4899;42.644;23.366;2023-05-07T06:44:51;13.70;;;11.60;;
9720;SDS011;4899;42.644;23.366;2023-05-07T06:47:17;14.80;;;13.30;;
9720;SDS011;4899;42.644;23.366;2023-05-07T06:49:42;13.70;;;10.37;;
9720;SDS011;4899;42.644;23.366;2023-05-07T06:52:07;11.17;;;10.07;;
9720;SDS011;4899;42.644;23.366;2023-05-07T06:54:34;10.43;;;9.40;;
9720;SDS011;4899;42.644;23.366;2023-05-07T06:57:00;10.63;;;9.73;;
9720;SDS011;4899;42.644;23.366;2023-05-07T06:59:25;9.97;;;8.97;;
9720;SDS011;4899;42.644;23.366;2023-05-07T07:01:51;9.47;;;8.20;;
9720;SDS011;4899;42.644;23.366;2023-05-07T07:04:16;10.40;;;9.37;;
9720;SDS011;4899;42.644;23.366;2023-05-07T07:06:41;9.97;;;9.07;;
9720;SDS011;4899;42.644;23.366;2023-05-07T07:09:07;9.67;;;8.70;;
9720;SDS011;4899;42.644;23.366;2023-05-07T07:11:32;9.90;;;8.97;;
9720;SDS011;4899;42.644;23.366;2023-05-07T07:13:58;9.07;;;8.17;;
9720;SDS011;4899;42.644;23.366;2023-05-07T07:16:24;8.83;;;8.03;;
9720;SDS011;4899;42.644;23.366;2023-05-07T07:18:49;9.03;;;8.13;;
9720;SDS011;4899;42.644;23.366;2023-05-07T07:21:15;11.37;;;8.37;;
9720;SDS011;4899;42.644;23.366;2023-05-07T07:23:41;8.50;;;7.80;;
9720;SDS011;4899;42.644;23.366;2023-05-07T07:26:06;12.23;;;9.00;;
9720;SDS011;4899;42.644;23.366;2023-05-07T07:28:32;9.67;;;8.33;;
9720;SDS011;4899;42.644;23.366;2023-05-07T07:30:57;9.90;;;8.83;;
9720;SDS011;4899;42.644;23.366;2023-05-07T07:33:22;11.00;;;8.50;;
9720;SDS011;4899;42.644;23.366;2023-05-07T07:35:48;10.00;;;9.00;;
9720;SDS011;4899;42.644;23.366;2023-05-07T07:38:13;9.93;;;7.80;;
9720;SDS011;4899;42.644;23.366;2023-05-07T07:40:39;12.40;;;9.07;;
9720;SDS011;4899;42.644;23.366;2023-05-07T07:43:04;10.47;;;7.53;;
9720;SDS011;4899;42.644;23.366;2023-05-07T07:45:31;8.40;;;7.47;;
9720;SDS011;4899;42.644;23.366;2023-05-07T07:47:56;9.33;;;8.27;;
9720;SDS011;4899;42.644;23.366;2023-05-07T07:50:21;8.70;;;7.87;;
9720;SDS011;4899;42.644;23.366;2023-05-07T07:52:47;8.37;;;7.27;;
9720;SDS011;4899;42.644;23.366;2023-05-07T07:55:13;8.63;;;7.77;;
9720;SDS011;4899;42.644;23.366;2023-05-07T07:57:43;7.67;;;6.97;;
9720;SDS011;4899;42.644;23.366;2023-05-07T08:00:08;7.60;;;6.90;;
9720;SDS011;4899;42.644;23.366;2023-05-07T08:02:34;7.67;;;7.07;;
9720;SDS011;4899;42.644;23.366;2023-05-07T08:04:59;8.43;;;7.43;;
9720;SDS011;4899;42.644;23.366;2023-05-07T08:07:25;9.43;;;8.50;;
9720;SDS011;4899;42.644;23.366;2023-05-07T08:09:50;10.03;;;8.53;;
9720;SDS011;4899;42.644;23.366;2023-05-07T08:12:16;10.07;;;9.03;;
9720;SDS011;4899;42.644;23.366;2023-05-07T08:14:41;8.87;;;8.07;;
9720;SDS011;4899;42.644;23.366;2023-05-07T08:17:07;9.90;;;8.93;;
9720;SDS011;4899;42.644;23.366;2023-05-07T08:19:34;10.40;;;9.33;;
9720;SDS011;4899;42.644;23.366;2023-05-07T08:22:00;9.67;;;8.67;;
9720;SDS011;4899;42.644;23.366;2023-05-07T08:24:25;9.37;;;8.40;;
9720;SDS011;4899;42.644;23.366;2023-05-07T08:26:51;12.83;;;8.30;;
9720;SDS011;4899;42.644;23.366;2023-05-07T08:29:16;10.70;;;8.97;;
9720;SDS011;4899;42.644;23.366;2023-05-07T08:31:41;9.77;;;8.77;;
9720;SDS011;4899;42.644;23.366;2023-05-07T08:34:08;9.47;;;8.47;;
9720;SDS011;4899;42.644;23.366;2023-05-07T08:36:33;9.57;;;8.67;;
9720;SDS011;4899;42.644;23.366;2023-05-07T08:38:59;8.43;;;7.60;;
9720;SDS011;4899;42.644;23.366;2023-05-07T08:41:24;8.57;;;7.83;;
9720;SDS011;4899;42.644;23.366;2023-05-07T08:43:50;9.97;;;8.97;;
9720;SDS011;4899;42.644;23.366;2023-05-07T08:46:17;7.70;;;7.00;;
9720;SDS011;4899;42.644;23.366;2023-05-07T08:48:49;8.07;;;7.27;;
9720;SDS011;4899;42.644;23.366;2023-05-07T08:51:20;7.80;;;7.10;;
9720;SDS011;4899;42.644;23.366;2023-05-07T08:53:47;8.53;;;7.83;;
9720;SDS011;4899;42.644;23.366;2023-05-07T08:56:16;10.00;;;7.27;;
9720;SDS011;4899;42.644;23.366;2023-05-07T08:58:43;10.83;;;6.60;;
9720;SDS011;4899;42.644;23.366;2023-05-07T09:01:10;7.63;;;6.40;;
9720;SDS011;4899;42.644;23.366;2023-05-07T09:03:39;7.93;;;5.50;;
9720;SDS011;4899;42.644;23.366;2023-05-07T09:06:05;5.67;;;5.17;;
9720;SDS011;4899;42.644;23.366;2023-05-07T09:08:32;6.47;;;4.53;;
9720;SDS011;4899;42.644;23.366;2023-05-07T09:10:59;3.93;;;3.30;;
9720;SDS011;4899;42.644;23.366;2023-05-07T09:13:25;5.93;;;5.17;;
9720;SDS011;4899;42.644;23.366;2023-05-07T09:15:52;6.30;;;5.70;;
9720;SDS011;4899;42.644;23.366;2023-05-07T09:18:17;6.13;;;5.30;;
9720;SDS011;4899;42.644;23.366;2023-05-07T09:20:42;6.43;;;5.60;;
9720;SDS011;4899;42.644;23.366;2023-05-07T09:23:08;6.87;;;5.43;;
9720;SDS011;4899;42.644;23.366;2023-05-07T09:25:34;5.60;;;5.10;;
9720;SDS011;4899;42.644;23.366;2023-05-07T09:28:00;6.20;;;5.70;;
9720;SDS011;4899;42.644;23.366;2023-05-07T09:30:29;6.10;;;5.50;;
9720;SDS011;4899;42.644;23.366;2023-05-07T09:32:59;6.43;;;5.83;;
9720;SDS011;4899;42.644;23.366;2023-05-07T09:35:26;7.40;;;5.90;;
9720;SDS011;4899;42.644;23.366;2023-05-07T09:37:55;7.37;;;6.67;;
9720;SDS011;4899;42.644;23.366;2023-05-07T09:40:29;5.87;;;5.37;;
9720;SDS011;4899;42.644;23.366;2023-05-07T09:42:55;7.07;;;6.33;;
9720;SDS011;4899;42.644;23.366;2023-05-07T09:45:27;6.10;;;5.50;;
9720;SDS011;4899;42.644;23.366;2023-05-07T09:47:54;5.83;;;5.33;;
9720;SDS011;4899;42.644;23.366;2023-05-07T09:50:22;5.50;;;5.00;;
9720;SDS011;4899;42.644;23.366;2023-05-07T09:52:52;6.80;;;5.30;;
9720;SDS011;4899;42.644;23.366;2023-05-07T09:55:19;5.23;;;4.80;;
9720;SDS011;4899;42.644;23.366;2023-05-07T09:57:45;5.27;;;4.77;;
9720;SDS011;4899;42.644;23.366;2023-05-07T10:00:12;7.03;;;5.47;;
9720;SDS011;4899;42.644;23.366;2023-05-07T10:02:38;5.73;;;5.10;;
9720;SDS011;4899;42.644;23.366;2023-05-07T10:05:12;5.40;;;4.80;;
9720;SDS011;4899;42.644;23.366;2023-05-07T10:07:39;8.00;;;5.20;;
9720;SDS011;4899;42.644;23.366;2023-05-07T10:10:06;8.20;;;5.40;;
9720;SDS011;4899;42.644;23.366;2023-05-07T10:12:32;5.77;;;4.23;;
9720;SDS011;4899;42.644;23.366;2023-05-07T10:15:04;4.17;;;3.77;;
9720;SDS011;4899;42.644;23.366;2023-05-07T10:17:31;4.77;;;4.37;;
9720;SDS011;4899;42.644;23.366;2023-05-07T10:19:57;4.57;;;4.27;;
9720;SDS011;4899;42.644;23.366;2023-05-07T10:22:23;4.67;;;4.27;;
9720;SDS011;4899;42.644;23.366;2023-05-07T10:24:52;5.03;;;4.63;;
9720;SDS011;4899;42.644;23.366;2023-05-07T10:27:19;5.33;;;4.73;;
9720;SDS011;4899;42.644;23.366;2023-05-07T10:32:56;4.43;;;4.03;;
9720;SDS011;4899;42.644;23.366;2023-05-07T10:35:31;4.70;;;4.30;;
9720;SDS011;4899;42.644;23.366;2023-05-07T10:38:01;5.30;;;4.37;;
9720;SDS011;4899;42.644;23.366;2023-05-07T10:40:27;7.17;;;4.83;;
9720;SDS011;4899;42.644;23.366;2023-05-07T10:43:05;7.13;;;4.33;;
9720;SDS011;4899;42.644;23.366;2023-05-07T10:45:31;5.37;;;4.30;;
9720;SDS011;4899;42.644;23.366;2023-05-07T10:50:39;4.27;;;3.90;;
9720;SDS011;4899;42.644;23.366;2023-05-07T10:55:46;4.10;;;3.73;;
9720;SDS011;4899;42.644;23.366;2023-05-07T10:58:26;3.83;;;3.53;;
9720;SDS011;4899;42.644;23.366;2023-05-07T11:00:59;4.20;;;3.70;;
9720;SDS011;4899;42.644;23.366;2023-05-07T11:03:26;4.60;;;4.10;;
9720;SDS011;4899;42.644;23.366;2023-05-07T11:11:18;4.28;;;3.50;;
9720;SDS011;4899;42.644;23.366;2023-05-07T11:13:47;4.30;;;4.00;;
9720;SDS011;4899;42.644;23.366;2023-05-07T11:16:22;4.45;;;4.05;;
9720;SDS011;4899;42.644;23.366;2023-05-07T11:18:55;5.80;;;4.00;;
9720;SDS011;4899;42.644;23.366;2023-05-07T11:21:54;4.55;;;3.53;;
9720;SDS011;4899;42.644;23.366;2023-05-07T11:24:13;3.85;;;3.53;;
9720;SDS011;4899;42.644;23.366;2023-05-07T11:26:48;4.40;;;4.10;;
9720;SDS011;4899;42.644;23.366;2023-05-07T11:29:15;3.67;;;3.38;;
9720;SDS011;4899;42.644;23.366;2023-05-07T11:31:42;4.28;;;3.92;;
9720;SDS011;4899;42.644;23.366;2023-05-07T11:34:08;4.50;;;4.10;;
9720;SDS011;4899;42.644;23.366;2023-05-07T11:36:36;3.58;;;3.28;;
9720;SDS011;4899;42.644;23.366;2023-05-07T11:39:30;3.90;;;3.60;;
9720;SDS011;4899;42.644;23.366;2023-05-07T11:41:58;3.60;;;3.30;;
9720;SDS011;4899;42.644;23.366;2023-05-07T11:44:24;4.22;;;3.50;;
9720;SDS011;4899;42.644;23.366;2023-05-07T11:46:50;4.35;;;4.05;;
9720;SDS011;4899;42.644;23.366;2023-05-07T11:49:16;4.63;;;3.35;;
9720;SDS011;4899;42.644;23.366;2023-05-07T11:51:42;4.15;;;3.70;;
9720;SDS011;4899;42.644;23.366;2023-05-07T11:54:08;4.50;;;3.22;;
9720;SDS011;4899;42.644;23.366;2023-05-07T11:56:36;4.18;;;3.35;;
9720;SDS011;4899;42.644;23.366;2023-05-07T11:59:01;5.20;;;3.90;;
9720;SDS011;4899;42.644;23.366;2023-05-07T12:01:27;5.18;;;3.97;;
9720;SDS011;4899;42.644;23.366;2023-05-07T12:03:52;4.22;;;3.80;;
9720;SDS011;4899;42.644;23.366;2023-05-07T12:06:17;4.10;;;3.70;;
9720;SDS011;4899;42.644;23.366;2023-05-07T12:08:43;6.07;;;3.38;;
9720;SDS011;4899;42.644;23.366;2023-05-07T12:11:12;4.00;;;3.60;;
9720;SDS011;4899;42.644;23.366;2023-05-07T12:13:41;3.88;;;3.58;;
9720;SDS011;4899;42.644;23.366;2023-05-07T12:16:07;3.60;;;3.30;;
9720;SDS011;4899;42.644;23.366;2023-05-07T12:18:33;4.47;;;3.20;;
9720;SDS011;4899;42.644;23.366;2023-05-07T12:21:00;3.70;;;3.45;;
9720;SDS011;4899;42.644;23.366;2023-05-07T12:23:25;3.33;;;3.13;;
9720;SDS011;4899;42.644;23.366;2023-05-07T12:25:51;3.58;;;3.28;;
9720;SDS011;4899;42.644;23.366;2023-05-07T12:28:17;3.67;;;3.47;;
9720;SDS011;4899;42.644;23.366;2023-05-07T12:30:44;3.40;;;3.00;;
9720;SDS011;4899;42.644;23.366;2023-05-07T12:33:11;3.80;;;3.42;;
9720;SDS011;4899;42.644;23.366;2023-05-07T12:35:39;3.42;;;3.13;;
9720;SDS011;4899;42.644;23.366;2023-05-07T12:40:50;4.50;;;3.22;;
9720;SDS011;4899;42.644;23.366;2023-05-07T12:43:26;8.23;;;3.25;;
9720;SDS011;4899;42.644;23.366;2023-05-07T12:45:55;3.80;;;3.55;;
9720;SDS011;4899;42.644;23.366;2023-05-07T12:48:22;3.72;;;3.42;;
9720;SDS011;4899;42.644;23.366;2023-05-07T12:50:55;3.95;;;3.60;;
9720;SDS011;4899;42.644;23.366;2023-05-07T12:53:22;3.65;;;3.33;;
9720;SDS011;4899;42.644;23.366;2023-05-07T12:55:51;3.30;;;3.10;;
9720;SDS011;4899;42.644;23.366;2023-05-07T12:58:23;3.35;;;3.13;;
9720;SDS011;4899;42.644;23.366;2023-05-07T13:00:52;3.92;;;3.20;;
9720;SDS011;4899;42.644;23.366;2023-05-07T13:03:25;3.35;;;3.03;;
9720;SDS011;4899;42.644;23.366;2023-05-07T13:05:52;3.90;;;3.50;;
9720;SDS011;4899;42.644;23.366;2023-05-07T13:08:27;2.70;;;2.60;;
9720;SDS011;4899;42.644;23.366;2023-05-07T13:10:55;3.70;;;3.40;;
9720;SDS011;4899;42.644;23.366;2023-05-07T13:13:20;3.45;;;2.92;;
9720;SDS011;4899;42.644;23.366;2023-05-07T13:15:46;3.63;;;2.47;;
9720;SDS011;4899;42.644;23.366;2023-05-07T13:18:12;2.60;;;2.40;;
9720;SDS011;4899;42.644;23.366;2023-05-07T13:20:38;2.40;;;2.30;;
9720;SDS011;4899;42.644;23.366;2023-05-07T13:23:03;4.03;;;2.72;;
9720;SDS011;4899;42.644;23.366;2023-05-07T13:25:29;2.50;;;2.30;;
9720;SDS011;4899;42.644;23.366;2023-05-07T13:27:59;3.55;;;2.75;;
9720;SDS011;4899;42.644;23.366;2023-05-07T13:30:24;3.92;;;2.60;;
9720;SDS011;4899;42.644;23.366;2023-05-07T13:32:50;2.67;;;2.42;;
9720;SDS011;4899;42.644;23.366;2023-05-07T13:35:17;2.22;;;2.10;;
9720;SDS011;4899;42.644;23.366;2023-05-07T13:37:42;2.63;;;2.45;;
9720;SDS011;4899;42.644;23.366;2023-05-07T13:40:07;2.25;;;2.15;;
9720;SDS011;4899;42.644;23.366;2023-05-07T13:42:33;2.92;;;2.42;;
9720;SDS011;4899;42.644;23.366;2023-05-07T13:44:59;2.85;;;2.42;;
9720;SDS011;4899;42.644;23.366;2023-05-07T13:47:24;2.63;;;2.42;;
9720;SDS011;4899;42.644;23.366;2023-05-07T13:49:50;2.97;;;2.60;;
9720;SDS011;4899;42.644;23.366;2023-05-07T13:52:15;2.60;;;2.40;;
9720;SDS011;4899;42.644;23.366;2023-05-07T13:54:41;2.55;;;2.35;;
9720;SDS011;4899;42.644;23.366;2023-05-07T13:57:07;2.85;;;2.65;;
9720;SDS011;4899;42.644;23.366;2023-05-07T13:59:33;3.22;;;3.03;;
9720;SDS011;4899;42.644;23.366;2023-05-07T14:01:58;2.83;;;2.63;;
9720;SDS011;4899;42.644;23.366;2023-05-07T14:04:24;2.90;;;2.40;;
9720;SDS011;4899;42.644;23.366;2023-05-07T14:06:49;2.38;;;2.20;;
9720;SDS011;4899;42.644;23.366;2023-05-07T14:09:15;2.83;;;2.35;;
9720;SDS011;4899;42.644;23.366;2023-05-07T14:11:40;2.83;;;2.63;;
9720;SDS011;4899;42.644;23.366;2023-05-07T14:14:06;2.75;;;2.55;;
9720;SDS011;4899;42.644;23.366;2023-05-07T14:16:31;2.30;;;2.20;;
9720;SDS011;4899;42.644;23.366;2023-05-07T14:18:57;2.97;;;2.60;;
9720;SDS011;4899;42.644;23.366;2023-05-07T14:21:22;2.75;;;2.55;;
9720;SDS011;4899;42.644;23.366;2023-05-07T14:23:47;2.70;;;2.50;;
9720;SDS011;4899;42.644;23.366;2023-05-07T14:26:13;3.03;;;2.72;;
9720;SDS011;4899;42.644;23.366;2023-05-07T14:28:39;2.60;;;2.50;;
9720;SDS011;4899;42.644;23.366;2023-05-07T14:31:07;2.92;;;2.72;;
9720;SDS011;4899;42.644;23.366;2023-05-07T14:33:32;2.42;;;2.30;;
9720;SDS011;4899;42.644;23.366;2023-05-07T14:35:58;3.83;;;2.80;;
9720;SDS011;4899;42.644;23.366;2023-05-07T14:38:23;3.17;;;2.88;;
9720;SDS011;4899;42.644;23.366;2023-05-07T14:40:48;3.25;;;2.58;;
9720;SDS011;4899;42.644;23.366;2023-05-07T14:43:14;2.30;;;2.20;;
9720;SDS011;4899;42.644;23.366;2023-05-07T14:45:39;3.45;;;2.88;;
9720;SDS011;4899;42.644;23.366;2023-05-07T14:48:05;3.67;;;2.40;;
9720;SDS011;4899;42.644;23.366;2023-05-07T14:50:30;5.13;;;2.70;;
9720;SDS011;4899;42.644;23.366;2023-05-07T14:52:56;3.20;;;2.90;;
9720;SDS011;4899;42.644;23.366;2023-05-07T14:55:21;4.53;;;2.67;;
9720;SDS011;4899;42.644;23.366;2023-05-07T14:57:46;2.47;;;2.33;;
9720;SDS011;4899;42.644;23.366;2023-05-07T15:00:12;3.80;;;3.10;;
9720;SDS011;4899;42.644;23.366;2023-05-07T15:02:41;3.88;;;2.63;;
9720;SDS011;4899;42.644;23.366;2023-05-07T15:05:06;3.05;;;2.80;;